Time;durP1;ratioP1;P1;durP2;ratioP2;P2;SDS_P1;SDS_P2;PMS_P1;PMS_P2;Temp;Humidity;BMP_temperature;BMP_pressure;BME280_temperature;BME280_humidity;BME280_pressure;Samples;Min_cycle;Max_cycle;Signal;HPM_P1;HPM_P2
2022/04/19 00:01:17;;;;;;;10.33;4.60;;;;;;;9.55;50.92;99758.56;5015377;28;20267;-84
2022/04/19 00:03:42;;;;;;;7.85;3.65;;;;;;;9.56;50.70;99754.75;5004077;28;20766;-84
2022/04/19 00:06:08;;;;;;;8.35;4.22;;;;;;;9.47;50.84;99751.69;4988175;28;20084;-84
2022/04/19 00:08:34;;;;;;;8.57;4.07;;;;;;;9.51;50.69;99749.28;5023263;28;20039;-83
2022/04/19 00:14:02;;;;;;;8.88;4.57;;;;;;;9.48;50.45;99749.81;5022615;28;20048;-84
2022/04/19 00:16:28;;;;;;;13.07;5.60;;;;;;;9.61;50.65;99748.53;5024290;28;20022;-84
2022/04/19 00:18:53;;;;;;;10.70;4.75;;;;;;;9.53;51.03;99753.38;5026257;28;20259;-83
2022/04/19 00:21:19;;;;;;;9.00;4.10;;;;;;;9.55;51.10;99755.84;5014791;28;20106;-83
2022/04/19 00:23:46;;;;;;;13.05;4.75;;;;;;;9.36;51.26;99756.22;5004060;28;20125;-84
2022/04/19 00:26:12;;;;;;;8.27;4.55;;;;;;;9.39;51.57;99736.66;5006291;28;20049;-84
2022/04/19 00:28:37;;;;;;;8.60;4.97;;;;;;;9.11;52.06;99746.72;5004502;28;20489;-83
2022/04/19 00:31:04;;;;;;;6.85;3.72;;;;;;;9.25;52.08;99738.16;5013456;28;20060;-84
2022/04/19 00:33:30;;;;;;;11.07;4.95;;;;;;;9.05;52.64;99743.09;5005121;28;20290;-85
2022/04/19 00:35:56;;;;;;;9.80;4.70;;;;;;;9.10;52.38;99737.72;5005861;28;20447;-82
2022/04/19 00:38:21;;;;;;;8.27;4.68;;;;;;;9.11;52.93;99744.81;5004885;28;20080;-83
2022/04/19 00:40:47;;;;;;;9.75;3.92;;;;;;;9.11;52.71;99735.84;5011112;28;20026;-84
2022/04/19 00:43:12;;;;;;;7.93;4.80;;;;;;;9.13;52.50;99736.41;5025573;28;20071;-84
2022/04/19 00:45:38;;;;;;;9.68;5.90;;;;;;;9.17;52.45;99723.91;5023938;28;20754;-84
2022/04/19 00:48:03;;;;;;;8.48;3.92;;;;;;;9.20;51.94;99719.88;5025292;28;20496;-83
2022/04/19 00:50:30;;;;;;;9.38;4.68;;;;;;;9.07;52.57;99726.56;5023476;28;20029;-84
2022/04/19 00:52:56;;;;;;;6.78;3.88;;;;;;;9.10;52.27;99726.84;5024695;28;20032;-83
2022/04/19 00:55:23;;;;;;;8.70;5.13;;;;;;;9.05;52.29;99726.78;5024844;28;20292;-83
2022/04/19 00:57:49;;;;;;;8.80;5.07;;;;;;;9.10;52.12;99715.97;5025213;28;20052;-83
2022/04/19 01:00:15;;;;;;;8.30;4.25;;;;;;;8.97;52.39;99725.34;5024932;28;20045;-83
2022/04/19 01:02:41;;;;;;;9.02;4.93;;;;;;;8.89;52.33;99725.00;5011278;28;20302;-84
2022/04/19 01:05:07;;;;;;;11.55;5.25;;;;;;;8.62;53.20;99721.16;5005615;28;20122;-82
2022/04/19 01:07:33;;;;;;;10.68;3.85;;;;;;;8.47;53.57;99719.84;5012294;28;20536;-84
2022/04/19 01:09:59;;;;;;;10.23;4.38;;;;;;;8.60;52.75;99717.84;5025227;28;20033;-84
2022/04/19 01:15:11;;;;;;;7.07;3.78;;;;;;;8.49;53.73;99711.44;5004840;28;20167;-84
2022/04/19 01:17:39;;;;;;;14.70;5.78;;;;;;;8.49;53.73;99716.88;5005551;28;20451;-83
2022/04/19 01:20:06;;;;;;;9.77;4.45;;;;;;;8.57;53.88;99719.16;5003963;28;20469;-83
2022/04/19 01:22:40;;;;;;;10.23;4.00;;;;;;;8.52;54.31;99719.09;5024422;28;20029;-83
2022/04/19 01:25:08;;;;;;;7.40;3.80;;;;;;;8.27;54.85;99714.94;5023400;28;20025;-82
2022/04/19 01:27:34;;;;;;;8.13;4.28;;;;;;;8.31;54.92;99709.84;5025521;28;20044;-83
2022/04/19 01:30:03;;;;;;;7.20;4.15;;;;;;;8.06;55.06;99709.22;5023734;28;20025;-83
2022/04/19 01:32:32;;;;;;;6.30;3.60;;;;;;;8.17;55.34;99708.31;5013532;28;20037;-83
2022/04/19 01:37:56;;;;;;;7.13;4.25;;;;;;;8.27;54.52;99699.47;5002990;28;20058;-83
2022/04/19 01:40:21;;;;;;;10.77;4.15;;;;;;;8.23;54.46;99702.94;5004645;28;20038;-82
2022/04/19 01:42:46;;;;;;;7.60;4.63;;;;;;;8.16;54.82;99694.97;5003766;28;20591;-83
2022/04/19 01:45:17;;;;;;;13.93;4.60;;;;;;;8.18;55.50;99698.25;5004309;28;20489;-82
2022/04/19 01:47:45;;;;;;;19.42;4.38;;;;;;;8.23;55.36;99698.34;5004020;28;20363;-82
2022/04/19 01:50:13;;;;;;;8.25;4.45;;;;;;;8.28;55.38;99697.56;5004332;28;20274;-83
2022/04/19 01:52:39;;;;;;;14.35;6.03;;;;;;;8.39;54.80;99693.09;5024684;28;20033;-83
2022/04/19 01:55:07;;;;;;;9.77;5.10;;;;;;;8.39;54.70;99687.66;5022906;28;20025;-83
2022/04/19 01:57:33;;;;;;;14.13;6.88;;;;;;;8.41;54.56;99691.78;5006390;28;20025;-83
2022/04/19 01:59:59;;;;;;;10.38;5.45;;;;;;;8.42;54.42;99689.88;5023116;28;20025;-84
2022/04/19 02:02:24;;;;;;;8.90;5.05;;;;;;;8.35;54.24;99689.25;5013079;28;20030;-83
2022/04/19 02:04:52;;;;;;;8.13;5.10;;;;;;;8.35;54.01;99690.06;5004180;28;20026;-83
2022/04/19 02:07:18;;;;;;;9.98;5.28;;;;;;;8.41;53.86;99685.53;5009486;28;20503;-83
2022/04/19 02:09:43;;;;;;;11.45;5.38;;;;;;;8.39;53.36;99690.38;5024428;28;20087;-83
2022/04/19 02:12:09;;;;;;;8.48;4.60;;;;;;;8.41;53.09;99682.81;5004779;28;20068;-83
2022/04/19 02:14:35;;;;;;;10.10;5.97;;;;;;;8.48;53.49;99680.72;5004841;28;20040;-84
2022/04/19 02:17:00;;;;;;;9.73;5.28;;;;;;;8.48;53.32;99685.34;5017371;28;20033;-83
2022/04/19 02:19:25;;;;;;;12.60;4.80;;;;;;;8.45;53.45;99678.50;5004797;28;20133;-83
2022/04/19 02:21:51;;;;;;;8.27;4.30;;;;;;;8.58;53.24;99679.25;5003397;28;20092;-83
2022/04/19 02:24:16;;;;;;;11.70;5.95;;;;;;;8.63;52.58;99687.44;5003255;28;20030;-83
2022/04/19 02:26:41;;;;;;;9.77;5.80;;;;;;;8.34;53.87;99682.19;5003381;28;20026;-83
2022/04/19 02:29:06;;;;;;;10.25;5.22;;;;;;;8.29;53.47;99683.75;5002594;28;20314;-84
2022/04/19 02:31:32;;;;;;;8.40;4.90;;;;;;;8.21;54.36;99678.75;5012854;28;20125;-84
2022/04/19 02:36:41;;;;;;;7.90;5.03;;;;;;;8.17;54.87;99688.47;5000518;28;20279;-84
2022/04/19 02:39:06;;;;;;;9.33;5.40;;;;;;;8.16;54.67;99678.66;5003414;28;20026;-83
2022/04/19 02:41:31;;;;;;;11.57;4.78;;;;;;;7.87;55.22;99686.97;5014959;28;20299;-83
2022/04/19 02:43:59;;;;;;;8.68;5.15;;;;;;;7.92;55.75;99693.28;5023915;28;20028;-82
2022/04/19 02:46:24;;;;;;;11.38;6.25;;;;;;;7.86;55.79;99693.44;5021246;28;20764;-82
2022/04/19 02:48:49;;;;;;;8.48;4.65;;;;;;;7.83;55.82;99684.72;5023865;28;20370;-83
2022/04/19 02:51:15;;;;;;;8.80;5.03;;;;;;;7.99;55.57;99692.28;5021445;28;20055;-83
2022/04/19 02:53:40;;;;;;;11.20;5.40;;;;;;;7.76;55.86;99692.22;5005827;28;20267;-83
2022/04/19 02:56:05;;;;;;;10.60;4.77;;;;;;;7.70;56.39;99690.50;5022177;28;20315;-84
2022/04/19 02:58:30;;;;;;;8.95;5.53;;;;;;;7.80;55.78;99689.84;5023279;28;20273;-84
2022/04/19 03:00:56;;;;;;;11.17;5.73;;;;;;;7.70;56.03;99694.06;5022750;28;20033;-83
2022/04/19 03:03:21;;;;;;;9.35;4.80;;;;;;;7.72;56.07;99682.94;5003046;28;20336;-83
2022/04/19 03:05:48;;;;;;;7.40;4.97;;;;;;;7.86;56.03;99698.88;4986425;28;20347;-83
2022/04/19 03:08:13;;;;;;;7.53;4.60;;;;;;;7.80;55.94;99696.09;5015823;28;20430;-83
2022/04/19 03:10:39;;;;;;;6.70;4.43;;;;;;;7.77;56.01;99696.59;5017856;28;20042;-82
2022/04/19 03:13:04;;;;;;;7.28;4.10;;;;;;;7.69;55.91;99697.00;5001414;28;20068;-82
2022/04/19 03:15:34;;;;;;;11.88;5.20;;;;;;;7.76;55.94;99694.94;5003692;28;20025;-83
2022/04/19 03:18:00;;;;;;;10.15;4.82;;;;;;;7.64;56.14;99691.50;5003269;28;20030;-84
2022/04/19 03:20:25;;;;;;;6.93;4.28;;;;;;;7.79;55.71;99693.63;5002616;28;20018;-83
2022/04/19 03:28:19;;;;;;;11.10;5.05;;;;;;;7.82;56.16;99704.00;5003944;28;20053;-83
2022/04/19 03:30:45;;;;;;;8.70;4.68;;;;;;;7.81;56.08;99692.31;5008689;28;20025;-83
2022/04/19 03:33:11;;;;;;;11.27;4.93;;;;;;;7.56;56.82;99685.44;5006444;28;20030;-83
2022/04/19 03:35:36;;;;;;;8.45;5.55;;;;;;;7.62;56.77;99688.22;5003554;28;20436;-83
2022/04/19 03:38:04;;;;;;;9.02;5.00;;;;;;;7.59;56.89;99693.06;5004609;28;20113;-83
2022/04/19 03:40:29;;;;;;;13.80;6.10;;;;;;;7.51;57.03;99687.22;5010667;28;20060;-84
2022/04/19 03:42:55;;;;;;;8.18;4.72;;;;;;;7.35;57.19;99693.22;5025292;28;20064;-83
2022/04/19 03:45:20;;;;;;;14.70;5.60;;;;;;;7.39;57.39;99695.41;5026895;28;20494;-82
2022/04/19 03:47:46;;;;;;;7.50;4.13;;;;;;;7.41;57.01;99691.41;5025131;28;20025;-83
2022/04/19 03:50:11;;;;;;;8.20;4.60;;;;;;;7.37;57.62;99698.38;5025877;28;20036;-83
2022/04/19 03:52:36;;;;;;;9.03;5.17;;;;;;;7.30;57.62;99698.53;5026555;28;20025;-83
2022/04/19 03:55:02;;;;;;;9.50;4.55;;;;;;;7.05;58.11;99694.31;5025070;28;20615;-83
2022/04/19 04:00:30;;;;;;;8.18;5.15;;;;;;;7.27;56.72;99693.59;5018809;28;20172;-83
2022/04/19 04:02:56;;;;;;;7.90;4.45;;;;;;;7.23;57.40;99692.44;5006829;28;20073;-83
2022/04/19 04:05:24;;;;;;;11.50;4.75;;;;;;;7.38;56.57;99685.66;5005977;28;20036;-83
2022/04/19 04:07:50;;;;;;;12.35;5.80;;;;;;;7.23;57.51;99681.59;4998027;28;20061;-83
2022/04/19 04:10:16;;;;;;;8.32;4.80;;;;;;;7.14;57.33;99677.66;5025828;28;20227;-83
2022/04/19 04:12:41;;;;;;;8.73;4.93;;;;;;;7.31;57.16;99683.91;5024970;28;20431;-83
2022/04/19 04:15:07;;;;;;;8.30;4.35;;;;;;;7.19;57.32;99681.28;5025976;28;20033;-83
2022/04/19 04:17:32;;;;;;;6.78;3.95;;;;;;;7.31;57.08;99685.81;5024225;28;20459;-82
2022/04/19 04:22:42;;;;;;;9.70;5.20;;;;;;;7.14;57.90;99688.50;4984368;28;20113;-83
2022/04/19 04:25:07;;;;;;;12.63;5.20;;;;;;;7.20;57.51;99688.31;4985859;28;20339;-83
2022/04/19 04:27:33;;;;;;;11.35;5.30;;;;;;;7.20;57.55;99698.38;4987194;28;20058;-84
2022/04/19 04:29:58;;;;;;;8.93;4.38;;;;;;;7.13;58.39;99701.22;4985143;28;20273;-83
2022/04/19 04:32:23;;;;;;;9.77;5.38;;;;;;;7.10;58.55;99699.81;5014688;28;20037;-83
2022/04/19 04:34:48;;;;;;;15.25;4.57;;;;;;;6.99;58.66;99698.00;5005135;28;20457;-83
2022/04/19 04:37:14;;;;;;;8.07;4.82;;;;;;;6.89;58.93;99702.13;5006270;28;20029;-83
2022/04/19 04:39:39;;;;;;;7.27;3.87;;;;;;;6.63;60.15;99696.22;5005563;28;20024;-83
2022/04/19 04:42:05;;;;;;;9.27;4.50;;;;;;;6.46;60.47;99708.88;5005057;28;20283;-83
2022/04/19 04:44:30;;;;;;;9.98;4.93;;;;;;;6.61;60.75;99695.63;5005847;28;20109;-83
2022/04/19 04:49:39;;;;;;;11.93;5.82;;;;;;;6.55;60.58;99707.44;5005005;28;20036;-83
2022/04/19 04:52:12;;;;;;;9.43;4.85;;;;;;;6.55;60.42;99704.72;5020446;28;20430;-83
2022/04/19 04:54:39;;;;;;;8.40;5.40;;;;;;;6.78;60.08;99703.00;5025533;28;20041;-83
2022/04/19 04:57:05;;;;;;;12.35;5.97;;;;;;;6.83;59.99;99705.84;5024965;28;20017;-83
2022/04/19 04:59:32;;;;;;;9.82;5.53;;;;;;;6.86;59.63;99697.22;5006345;28;20096;-83
2022/04/19 05:01:58;;;;;;;10.98;5.57;;;;;;;7.10;59.55;99705.25;5008353;28;20033;-82
2022/04/19 05:04:24;;;;;;;8.73;5.25;;;;;;;7.11;59.20;99706.91;5003677;28;20341;-83
2022/04/19 05:06:49;;;;;;;10.15;5.03;;;;;;;7.04;58.93;99702.69;5007864;28;20540;-82
2022/04/19 05:09:14;;;;;;;17.77;6.68;;;;;;;6.96;59.74;99703.88;5023294;28;20029;-82
2022/04/19 05:11:40;;;;;;;10.60;5.90;;;;;;;7.04;59.80;99706.22;5011214;28;20031;-82
2022/04/19 05:14:07;;;;;;;9.55;6.50;;;;;;;7.15;59.47;99706.41;5004346;28;20251;-83
2022/04/19 05:16:33;;;;;;;11.95;5.95;;;;;;;7.27;59.63;99715.31;5004320;28;20264;-84
2022/04/19 05:18:59;;;;;;;8.70;6.18;;;;;;;7.29;59.73;99705.03;5005087;28;20025;-84
2022/04/19 05:21:24;;;;;;;10.73;5.20;;;;;;;7.28;59.16;99708.81;5012424;28;20098;-83
2022/04/19 05:23:49;;;;;;;11.40;5.47;;;;;;;7.45;59.10;99708.00;5005244;28;20544;-83
2022/04/19 05:26:15;;;;;;;11.55;5.72;;;;;;;7.44;59.08;99711.81;5003039;28;20029;-82
2022/04/19 05:28:40;;;;;;;12.30;6.40;;;;;;;7.52;59.12;99705.16;5004272;28;20026;-84
2022/04/19 05:31:05;;;;;;;11.18;5.10;;;;;;;7.58;57.99;99706.88;5002778;28;20471;-84
2022/04/19 05:33:30;;;;;;;15.45;6.32;;;;;;;7.63;57.98;99698.00;5009239;28;20084;-83
2022/04/19 05:35:56;;;;;;;11.03;5.70;;;;;;;7.61;58.42;99708.28;5008608;28;20026;-83
2022/04/19 05:38:22;;;;;;;13.73;7.70;;;;;;;7.61;58.78;99702.84;5007224;28;20267;-82
2022/04/19 05:40:47;;;;;;;10.68;5.70;;;;;;;7.74;58.67;99707.13;5010456;28;20381;-84
2022/04/19 05:43:12;;;;;;;13.27;7.28;;;;;;;7.80;58.33;99711.56;5023005;28;20049;-81
2022/04/19 05:45:39;;;;;;;12.37;6.30;;;;;;;7.90;58.27;99709.00;5025346;28;20057;-84
2022/04/19 05:48:05;;;;;;;16.55;6.50;;;;;;;7.83;58.06;99711.88;5022842;28;20329;-84
2022/04/19 05:50:30;;;;;;;12.60;6.95;;;;;;;8.02;57.34;99714.34;5023821;28;20629;-89
2022/04/19 05:52:56;;;;;;;12.23;5.63;;;;;;;8.03;58.45;99709.72;5024144;28;20044;-85
2022/04/19 05:55:21;;;;;;;9.30;5.53;;;;;;;8.05;58.02;99711.09;5010457;28;20094;-84
2022/04/19 06:00:49;;;;;;;12.95;6.45;;;;;;;8.22;58.04;99717.59;5019183;28;20266;-84
2022/04/19 06:05:58;;;;;;;10.52;5.90;;;;;;;8.23;57.33;99706.50;5008921;28;20251;-83
2022/04/19 06:08:23;;;;;;;12.45;5.90;;;;;;;8.11;57.63;99716.63;5023078;28;20428;-84
2022/04/19 06:10:50;;;;;;;12.50;5.53;;;;;;;8.21;57.48;99721.38;5022196;28;20030;-83
2022/04/19 06:13:16;;;;;;;14.10;6.45;;;;;;;8.16;58.21;99720.25;5007705;28;20270;-84
2022/04/19 06:15:41;;;;;;;10.07;5.82;;;;;;;8.31;57.91;99717.97;5005593;28;20557;-84
2022/04/19 06:18:08;;;;;;;13.93;7.15;;;;;;;8.38;57.39;99715.94;5002201;28;20133;-84
2022/04/19 06:20:34;;;;;;;13.98;6.10;;;;;;;8.39;57.81;99707.50;5003741;28;20053;-84
2022/04/19 06:22:59;;;;;;;14.95;5.97;;;;;;;8.41;57.56;99712.69;5003022;28;20381;-83
2022/04/19 06:25:24;;;;;;;12.38;7.32;;;;;;;8.44;57.11;99714.09;5004068;28;20029;-84
2022/04/19 06:27:50;;;;;;;11.23;6.87;;;;;;;8.45;56.78;99711.13;5004753;28;20033;-84
2022/04/19 06:30:15;;;;;;;11.50;6.82;;;;;;;8.20;58.30;99712.41;5006480;28;20275;-86
2022/04/19 06:32:42;;;;;;;11.18;5.93;;;;;;;8.32;57.56;99708.78;5008503;28;20073;-83
2022/04/19 06:35:08;;;;;;;13.23;6.03;;;;;;;8.46;58.30;99706.50;5007156;28;20033;-84
2022/04/19 06:37:34;;;;;;;12.10;6.25;;;;;;;8.64;57.63;99702.69;5007426;28;20400;-82
2022/04/19 06:40:04;;;;;;;14.43;7.22;;;;;;;8.87;57.09;99711.63;5003091;28;20022;-83
2022/04/19 06:42:29;;;;;;;12.63;6.18;;;;;;;8.84;56.73;99712.16;4984345;28;20034;-84
2022/04/19 06:44:55;;;;;;;14.75;7.82;;;;;;;8.60;57.60;99705.06;4983667;28;20019;-82
2022/04/19 06:47:20;;;;;;;11.30;7.22;;;;;;;8.67;56.98;99706.78;4982775;28;20031;-83
2022/04/19 06:49:45;;;;;;;13.97;7.83;;;;;;;8.74;56.62;99712.84;4984345;28;20030;-82
2022/04/19 06:52:11;;;;;;;17.23;7.67;;;;;;;8.97;54.85;99706.31;5005782;28;20264;-84
2022/04/19 06:54:36;;;;;;;20.23;9.70;;;;;;;9.11;55.12;99705.94;5008138;28;20291;-82
2022/04/19 06:57:01;;;;;;;12.18;6.07;;;;;;;9.06;54.25;99711.28;5002192;28;20030;-83
2022/04/19 06:59:27;;;;;;;15.43;7.50;;;;;;;9.19;53.51;99713.59;5002275;28;20022;-85
2022/04/19 07:01:52;;;;;;;12.02;6.05;;;;;;;9.27;52.83;99704.19;5001892;28;20038;-86
2022/04/19 07:04:18;;;;;;;16.60;8.00;;;;;;;9.30;52.34;99716.41;5003254;28;20042;-83
2022/04/19 07:06:43;;;;;;;15.82;7.88;;;;;;;9.40;52.41;99710.25;5003429;28;20279;-82
2022/04/19 07:09:08;;;;;;;13.60;8.20;;;;;;;9.40;52.63;99711.06;4984655;28;20030;-83
2022/04/19 07:11:36;;;;;;;12.25;7.00;;;;;;;9.53;52.02;99706.28;5016909;28;20265;-85
2022/04/19 07:14:02;;;;;;;15.32;8.65;;;;;;;9.68;52.28;99714.56;5025764;28;20033;-84
2022/04/19 07:16:27;;;;;;;12.20;6.85;;;;;;;9.74;52.59;99711.91;5027761;28;20040;-83
2022/04/19 07:18:52;;;;;;;13.43;7.67;;;;;;;9.73;51.82;99716.53;5026473;28;20080;-85
2022/04/19 07:26:47;;;;;;;13.20;9.13;;;;;;;9.90;51.99;99726.47;5003998;28;20538;-83
2022/04/19 07:29:15;;;;;;;11.43;7.05;;;;;;;9.97;51.42;99726.22;5007643;28;20156;-84
2022/04/19 07:31:42;;;;;;;15.05;8.48;;;;;;;10.18;51.58;99720.91;5014843;28;20034;-83
2022/04/19 07:34:08;;;;;;;12.02;6.40;;;;;;;10.38;51.07;99723.75;5007757;28;20370;-85
2022/04/19 07:36:41;;;;;;;14.10;8.20;;;;;;;10.49;50.79;99721.94;5007323;28;20037;-85
2022/04/19 07:39:13;;;;;;;14.60;7.70;;;;;;;10.40;50.82;99718.03;5006072;28;20025;-85
2022/04/19 07:41:40;;;;;;;14.95;8.13;;;;;;;10.47;50.46;99724.09;5019780;28;20033;-82
2022/04/19 07:44:06;;;;;;;16.48;7.03;;;;;;;10.50;51.03;99723.56;5005882;28;20034;-89
2022/04/19 07:46:32;;;;;;;12.68;6.93;;;;;;;10.54;50.86;99728.47;5007023;28;20489;-85
2022/04/19 07:48:57;;;;;;;17.23;9.20;;;;;;;10.62;49.84;99734.25;5010190;28;20080;-84
2022/04/19 07:51:23;;;;;;;13.05;7.18;;;;;;;10.61;49.72;99735.34;5022524;28;20037;-85
2022/04/19 07:53:49;;;;;;;14.38;6.57;;;;;;;10.57;50.52;99726.06;5030475;28;20029;-85
2022/04/19 07:56:14;;;;;;;13.20;8.13;;;;;;;10.57;49.66;99733.41;5029965;28;20026;-85
2022/04/19 07:58:39;;;;;;;17.73;9.40;;;;;;;10.76;48.99;99731.03;5016824;28;20021;-84
2022/04/19 08:01:20;;;;;;;16.45;9.10;;;;;;;10.88;48.55;99727.28;4996210;28;20260;-86
2022/04/19 08:03:45;;;;;;;19.88;10.52;;;;;;;11.01;48.42;99726.75;5007826;28;20689;-89
2022/04/19 08:06:11;;;;;;;24.35;10.88;;;;;;;11.13;48.63;99725.69;5005389;28;20599;-88
2022/04/19 08:08:37;;;;;;;16.90;8.18;;;;;;;11.13;48.12;99725.69;5024184;28;20112;-89
2022/04/19 08:11:03;;;;;;;15.07;8.48;;;;;;;11.18;48.47;99723.81;5017820;28;20038;-87
2022/04/19 08:13:29;;;;;;;19.83;7.10;;;;;;;11.25;47.80;99730.91;5006032;28;20076;-87
2022/04/19 08:15:54;;;;;;;20.20;9.85;;;;;;;11.22;47.75;99732.28;5006741;28;20022;-86
2022/04/19 08:18:19;;;;;;;12.07;6.47;;;;;;;11.33;47.98;99725.72;5005263;28;20029;-87
2022/04/19 08:20:45;;;;;;;15.05;7.80;;;;;;;11.35;47.30;99727.38;5012450;28;20065;-88
2022/04/19 08:23:12;;;;;;;14.15;6.00;;;;;;;11.40;47.01;99730.09;5024066;28;21164;-86
2022/04/19 08:25:38;;;;;;;13.80;6.68;;;;;;;11.46;46.58;99725.47;5026789;28;20117;-87
2022/04/19 08:28:05;;;;;;;13.85;7.05;;;;;;;11.52;46.44;99727.94;5025266;28;20157;-86
2022/04/19 08:30:30;;;;;;;13.05;6.40;;;;;;;11.65;46.43;99728.50;5025417;28;20026;-85
2022/04/19 08:32:57;;;;;;;14.82;6.38;;;;;;;11.71;45.93;99718.38;4994669;28;20028;-86
2022/04/19 08:35:23;;;;;;;15.23;6.97;;;;;;;11.77;44.54;99726.31;5004901;28;20030;-85
2022/04/19 08:37:48;;;;;;;12.55;6.10;;;;;;;11.88;45.23;99726.28;5006535;28;20056;-86
2022/04/19 08:40:14;;;;;;;14.07;6.38;;;;;;;12.07;44.94;99723.81;4988484;28;20022;-86
2022/04/19 08:42:40;;;;;;;13.27;6.47;;;;;;;12.07;44.15;99723.00;5025942;28;20029;-85
2022/04/19 08:45:08;;;;;;;11.20;5.90;;;;;;;12.18;44.62;99729.28;5024381;28;20059;-85
2022/04/19 08:47:38;;;;;;;11.77;6.25;;;;;;;12.23;44.37;99718.34;5025199;28;20092;-85
2022/04/19 08:50:06;;;;;;;11.95;6.43;;;;;;;12.24;43.05;99723.53;5011913;28;20049;-85
2022/04/19 08:52:33;;;;;;;13.18;6.15;;;;;;;12.37;42.81;99713.09;5004608;28;20018;-85
2022/04/19 08:57:42;;;;;;;11.00;6.03;;;;;;;12.57;42.76;99716.88;5004374;28;20091;-85
2022/04/19 09:00:07;;;;;;;9.65;5.00;;;;;;;12.67;43.00;99727.75;5005790;28;20026;-87
2022/04/19 09:02:37;;;;;;;10.63;5.28;;;;;;;12.81;43.79;99727.19;5012613;28;20034;-85
2022/04/19 09:05:21;;;;;;;9.02;4.80;;;;;;;13.00;43.49;99721.88;4985691;28;20034;-85
2022/04/19 09:07:47;;;;;;;;;;;;;;;12.99;42.75;99720.25;5006895;28;20053;-84
2022/04/19 09:10:26;;;;;;;8.52;4.95;;;;;;;13.09;42.32;99724.84;5021733;28;19921;-83
2022/04/19 09:13:05;;;;;;;12.55;5.28;;;;;;;13.23;43.57;99719.56;5005357;28;20030;-86
2022/04/19 09:15:36;;;;;;;9.15;4.53;;;;;;;13.33;41.83;99721.41;5004722;28;20080;-85
2022/04/19 09:18:02;;;;;;;9.70;4.60;;;;;;;13.40;41.87;99723.81;5004562;28;20487;-84
2022/04/19 09:20:27;;;;;;;7.35;3.55;;;;;;;13.54;42.29;99724.03;5004769;28;20029;-85
2022/04/19 09:23:07;;;;;;;8.35;3.90;;;;;;;13.64;41.79;99717.66;5003935;28;20026;-86
2022/04/19 09:25:34;;;;;;;9.07;4.13;;;;;;;13.70;42.02;99716.50;5005285;28;20548;-86
2022/04/19 09:28:00;;;;;;;6.50;3.15;;;;;;;13.91;41.95;99716.31;5003219;28;20033;-86
2022/04/19 09:30:32;;;;;;;6.60;4.07;;;;;;;13.94;41.66;99720.38;5008495;28;20082;-89
2022/04/19 09:33:14;;;;;;;6.88;3.58;;;;;;;14.13;41.65;99717.75;5008376;28;20077;-88
2022/04/19 09:36:02;;;;;;;5.43;3.13;;;;;;;14.18;41.16;99714.13;5003716;28;20398;-88
2022/04/19 09:38:41;;;;;;;13.38;6.30;;;;;;;14.21;41.02;99708.06;5005017;28;20299;-88
2022/04/19 09:41:11;;;;;;;14.15;3.35;;;;;;;14.26;40.42;99708.00;5003436;28;20065;-87
2022/04/19 09:43:37;;;;;;;8.18;2.67;;;;;;;14.32;40.75;99701.34;5004481;28;20540;-87
2022/04/19 09:46:04;;;;;;;6.07;2.70;;;;;;;14.35;40.26;99700.78;5004288;28;20036;-87
2022/04/19 09:48:31;;;;;;;6.25;3.30;;;;;;;14.41;40.66;99708.94;5002796;28;20051;-87
2022/04/19 09:51:04;;;;;;;9.88;5.22;;;;;;;14.69;40.92;99698.19;5012499;28;20079;-86
2022/04/19 09:53:46;;;;;;;7.13;3.00;;;;;;;14.70;40.27;99697.91;5013802;28;20481;-89
2022/04/19 09:56:13;;;;;;;7.00;3.47;;;;;;;14.80;40.05;99702.44;5005055;28;20113;-86
2022/04/19 09:58:49;;;;;;;8.98;3.95;;;;;;;14.56;39.95;99691.50;5004372;28;20026;-86
2022/04/19 10:09:35;;;;;;;8.13;3.30;;;;;;;15.11;40.72;99683.94;5024179;28;20511;-86
2022/04/19 10:12:02;;;;;;;6.75;3.38;;;;;;;15.32;39.25;99683.59;5007234;28;20571;-87
2022/04/19 10:14:29;;;;;;;8.98;3.33;;;;;;;15.48;38.79;99684.16;5003392;28;20029;-88
2022/04/19 10:16:57;;;;;;;8.50;3.97;;;;;;;15.60;39.27;99684.50;5004091;28;20030;-88
2022/04/19 10:19:22;;;;;;;6.78;3.65;;;;;;;15.66;38.76;99674.28;5003056;28;20524;-88
2022/04/19 10:21:49;;;;;;;6.00;3.30;;;;;;;15.61;38.83;99674.34;5018962;28;20584;-89
2022/04/19 10:24:16;;;;;;;10.20;3.47;;;;;;;15.75;39.41;99672.47;5023180;28;20025;-87
2022/04/19 10:26:46;;;;;;;34.67;8.20;;;;;;;15.76;37.72;99681.53;5024274;28;20037;-93
2022/04/19 10:29:32;;;;;;;6.30;2.50;;;;;;;16.06;37.79;99667.53;5024320;28;20032;-94
2022/04/19 10:32:08;;;;;;;11.55;4.28;;;;;;;16.17;38.41;99671.72;5006686;28;20037;-93
2022/04/19 10:34:35;;;;;;;56.90;10.07;;;;;;;16.31;38.79;99673.66;5004876;28;20045;-94
2022/04/19 10:37:15;;;;;;;73.53;9.98;;;;;;;16.24;37.78;99668.56;5006186;28;20032;-92
2022/04/19 10:39:50;;;;;;;11.82;3.22;;;;;;;16.54;37.82;99670.97;5004351;28;20495;-88
2022/04/19 10:42:33;;;;;;;7.93;3.88;;;;;;;16.67;38.37;99669.34;5003229;28;20025;-83
2022/04/19 10:45:13;;;;;;;7.97;3.50;;;;;;;16.77;37.70;99657.28;4994523;28;20025;-82
2022/04/19 10:47:54;;;;;;;9.30;4.40;;;;;;;16.80;37.21;99660.22;5004758;28;20068;-81
2022/04/19 10:50:39;;;;;;;9.07;3.75;;;;;;;16.91;36.75;99655.31;5008644;28;20022;-81
2022/04/19 10:53:09;;;;;;;5.18;2.55;;;;;;;16.94;36.80;99666.84;5005670;28;20428;-80
2022/04/19 10:55:54;;;;;;;5.28;2.83;;;;;;;17.01;37.09;99664.47;5006422;28;20080;-80
2022/04/19 10:58:22;;;;;;;9.30;3.33;;;;;;;16.98;37.75;99662.34;5005169;28;21151;-81
2022/04/19 11:00:59;;;;;;;8.38;3.63;;;;;;;17.25;36.73;99655.13;5003258;28;20555;-81
2022/04/19 11:03:25;;;;;;;10.73;3.90;;;;;;;16.88;36.74;99652.38;5004537;28;20044;-81
2022/04/19 11:05:55;;;;;;;10.27;3.77;;;;;;;17.20;36.40;99655.25;5004031;28;20018;-81
2022/04/19 11:08:27;;;;;;;8.82;3.00;;;;;;;17.30;35.90;99657.75;5020970;28;20053;-80
2022/04/19 11:10:54;;;;;;;9.20;3.30;;;;;;;17.39;35.36;99655.06;5024389;28;20053;-81
2022/04/19 11:13:21;;;;;;;14.05;3.30;;;;;;;17.31;35.71;99647.56;5026203;28;20021;-82
2022/04/19 11:15:59;;;;;;;7.30;2.67;;;;;;;17.21;35.67;99659.63;5024750;28;20072;-81
2022/04/19 11:18:27;;;;;;;7.60;3.03;;;;;;;17.36;35.99;99645.50;5026174;28;20033;-82
2022/04/19 11:20:53;;;;;;;7.70;3.15;;;;;;;17.23;35.84;99651.88;5025443;28;20519;-82
2022/04/19 11:23:22;;;;;;;10.63;3.40;;;;;;;17.48;36.39;99646.84;5024838;28;20502;-82
2022/04/19 11:25:49;;;;;;;6.28;3.05;;;;;;;17.73;36.06;99641.81;5026230;28;20476;-82
2022/04/19 11:28:19;;;;;;;7.45;3.25;;;;;;;17.75;36.48;99639.56;5024975;28;20029;-82
2022/04/19 11:31:06;;;;;;;7.85;3.42;;;;;;;17.91;36.59;99647.41;5020609;28;20025;-89
2022/04/19 11:33:34;;;;;;;8.38;3.63;;;;;;;18.09;36.07;99643.59;5006336;28;20133;-89
2022/04/19 11:36:04;;;;;;;6.13;2.95;;;;;;;17.92;35.64;99638.03;5007257;28;20555;-87
2022/04/19 11:38:33;;;;;;;7.05;2.75;;;;;;;17.93;35.19;99637.69;4989895;28;20029;-86
2022/04/19 11:46:46;;;;;;;4.70;2.08;;;;;;;17.90;33.90;99629.25;5005283;28;20072;-88
2022/04/19 11:49:25;;;;;;;6.78;3.05;;;;;;;18.27;34.13;99632.63;5005618;28;20053;-87
2022/04/19 11:51:54;;;;;;;4.78;2.15;;;;;;;18.52;34.02;99627.50;5006041;28;20033;-87
2022/04/19 11:54:21;;;;;;;22.75;4.63;;;;;;;18.66;33.06;99626.53;5005669;28;20112;-88
2022/04/19 11:56:55;;;;;;;10.82;4.47;;;;;;;18.47;33.11;99624.88;5007474;28;20040;-86
2022/04/19 11:59:25;;;;;;;7.47;1.92;;;;;;;18.72;33.93;99622.50;5005481;28;20092;-86
2022/04/19 12:01:51;;;;;;;10.30;4.70;;;;;;;18.36;33.52;99620.81;5004912;28;20120;-88
2022/04/19 12:04:16;;;;;;;9.38;3.83;;;;;;;18.52;34.70;99618.41;5005962;28;20104;-85
2022/04/19 12:06:52;;;;;;;7.60;3.13;;;;;;;18.73;34.52;99631.59;5006455;28;20275;-87
2022/04/19 12:09:19;;;;;;;9.30;3.88;;;;;;;18.54;34.66;99625.25;5026566;28;20357;-87
2022/04/19 12:11:46;;;;;;;8.48;3.65;;;;;;;18.75;34.52;99619.06;5024242;28;20029;-86
2022/04/19 12:14:23;;;;;;;12.27;5.07;;;;;;;18.76;33.72;99617.94;5025509;28;20041;-83
2022/04/19 12:16:55;;;;;;;7.13;3.85;;;;;;;18.95;33.61;99616.00;5007634;28;20029;-84
2022/04/19 12:19:34;;;;;;;13.70;6.07;;;;;;;18.94;33.60;99617.13;5025325;28;20022;-86
2022/04/19 12:22:00;;;;;;;10.93;3.78;;;;;;;18.95;34.27;99604.94;5019547;28;20030;-89
2022/04/19 12:24:28;;;;;;;7.45;4.22;;;;;;;19.08;34.81;99605.94;5005051;28;20087;-89
2022/04/19 12:27:05;;;;;;;7.43;3.45;;;;;;;18.88;34.97;99600.72;5006893;28;20026;-87
2022/04/19 12:29:30;;;;;;;9.95;4.85;;;;;;;19.17;35.04;99606.75;5010041;28;20022;-86